Terminal Aerodrome Forecast
Issued by NWS Mt. Holly, NJ

Home | Current Version | Previous Version | Text Only | Print | Product List | Glossary On
Versions: 1 2 3 4 5 6 7 8 9 10 11 12 13 14 15 16 17 18 19 20 21 22 23 24
000
FTUS41 KPHI 162300
TAFABE
TAF
KABE 162340Z 1700/1724 36008KT P6SM SKC
     FM170400 05004KT P6SM FEW250
     FM171200 08009KT P6SM SCT250
     FM171800 11010KT P6SM SCT250=

USA.gov is the U.S. government's official web portal to all federal, state and local government web resources and services.